Tuesday, March 03, 2015
22:36 UTC
  |  Log In   |  Register Free
Airport Search:

Petaluma Municipal Airport
(KO69)

Petaluma Municipal Airport Diagram
No Airport Diagram Available

FAA data valid effective January 08, 2015 - March 05, 2015 (unless otherwise noted).

 
 
 
 
 
 
 
 
 
 
 
 
 
 

Current Aviation Weather for Petaluma Municipal Airport (KO69)

The most recent METAR observation for KO69 was updated at: 2209
METAR Summary (Translated METAR)
KO69
032155Z AUTO 27009KT 10SM CLR 18/07 A3002 RMK AO1
KDVO
032155Z AUTO 14003KT CLR 18/07 A3000 RMK AO2
(7.3 nm SE from KO69)
KAPC
032154Z 23006KT 10SM CLR 16/07 A3000 RMK AO2 SLP149 T01610072
(15.6 nm SE from KO69)
TAF
No TAF information found within 50 nm of KDVO
  Airport Weather Conditions for KO69

 Current Weather at O69
64° F
Fair
West winds at 10.4 mph
O69 NOAA Radar

Pressure: 30.02 in
Humidity: 49%
Wind: West at 10.4 MPH (9 KT)
Dew Point: 44.6°F
Visibility: 10.00 mi


Airport Weather Forecast for KO69

Translated METAR and TAF for KDVO
Translated METAR for KDVO (2236 UTC 03 March 2015)
found at http://aviationweather.gov/adds/metars/
 
METAR text: KDVO 032215Z AUTO 19004KT CLR 18/08 A3000 RMK AO2
Conditions at: KDVO (NOVATO/GNOSS FLD, CA, US) observed 2215 UTC 03 March 2015
Temperature: 18.0°C (64°F)
Dewpoint: 8.0°C (46°F) [RH = 52%]
Pressure (altimeter): 30.00 inches Hg (1016.0 mb)
Winds: from the S (190 degrees) at 5 MPH (4 knots; 2.1 m/s)
Visibility: missing
Ceiling: at least 12,000 feet AGL
Clouds: sky clear below 12,000 feet AGL
Weather: automated observation with no human augmentation;
there may or may not be significant weather present at this time
Translated TAF for KDVO

There is no translated TAF available for this airport

Find All Airport Services Find A Hotel Find A Rental Car Find A Golf Course Find A Restaurant $100 Hamburger



FBO's on the Field
FBO Company Facility Photos Services Transportation Aviation Fuel Prices: Prices include tax
Catering Weather Repair Courtesy Rental Type 100LL JetA JetA+ MOGAS 8087
 
Petaluma Municipal Airport

Currently rated 4.8 by 1 person
FS:Shell
Last Updated: Feb-09
Login to update fuel prices
SS:
Contact Petaluma Municipal AirportMore FBO Information
 
Add another FBO Facility Photos Catering Weather Repair Courtesy Rental Type 100LL JetA JetA+ MOGAS 8087
Services Transportation Aviation Fuel Prices: Prices include tax


model-print
model-print
model-print
model-print